createdAt,value
2018-03-01T00:01:29.834Z,43.30
2018-03-01T00:03:59.706Z,43.00
2018-03-01T00:06:28.767Z,43.00
2018-03-01T00:08:57.832Z,43.20
2018-03-01T00:11:26.925Z,43.50
2018-03-01T00:13:56.796Z,43.10
2018-03-01T00:16:25.847Z,43.00
2018-03-01T00:18:55.690Z,42.70
2018-03-01T00:21:24.758Z,42.70
2018-03-01T00:23:54.607Z,43.20
2018-03-01T00:26:23.693Z,43.20
2018-03-01T00:28:52.785Z,43.30
2018-03-01T00:31:21.869Z,43.30
2018-03-01T00:33:51.011Z,43.40
2018-03-01T00:36:20.232Z,43.40
2018-03-01T00:38:49.326Z,43.10
2018-03-01T00:41:18.402Z,43.20
2018-03-01T00:43:47.508Z,43.40
2018-03-01T00:46:16.617Z,43.20
2018-03-01T00:48:45.726Z,43.60
2018-03-01T00:51:16.504Z,43.70
2018-03-01T00:53:45.580Z,43.70
2018-03-01T00:56:14.671Z,43.50
2018-03-01T00:58:43.751Z,43.70
2018-03-01T01:01:12.851Z,43.90
2018-03-01T01:03:42.674Z,44.00
2018-03-01T01:06:11.782Z,44.00
2018-03-01T01:08:40.843Z,43.70
2018-03-01T01:11:09.953Z,43.70
2018-03-01T01:13:39.054Z,43.60
2018-03-01T01:16:08.131Z,43.60
2018-03-01T01:18:37.969Z,44.00
2018-03-01T01:21:07.026Z,44.00
2018-03-01T01:23:36.857Z,44.40
2018-03-01T01:26:05.915Z,44.30
2018-03-01T01:28:34.990Z,44.10
2018-03-01T01:31:04.079Z,43.80
2018-03-01T01:33:33.152Z,43.90
2018-03-01T01:36:02.226Z,43.90
2018-03-01T01:38:31.280Z,44.00
2018-03-01T01:41:00.368Z,44.00
2018-03-01T01:43:29.467Z,44.30
2018-03-01T01:45:58.530Z,44.20
2018-03-01T01:48:27.668Z,44.10
2018-03-01T01:51:04.414Z,44.10
2018-03-01T01:53:34.231Z,44.20
2018-03-01T01:56:03.313Z,44.20
2018-03-01T01:58:32.367Z,44.30
2018-03-01T02:01:02.222Z,44.50
2018-03-01T02:03:31.301Z,44.50
2018-03-01T02:06:00.351Z,44.60
2018-03-01T02:08:30.203Z,44.90
2018-03-01T02:10:59.254Z,44.90
2018-03-01T02:13:29.104Z,45.10
2018-03-01T02:15:58.173Z,45.30
2018-03-01T02:18:27.254Z,45.50
2018-03-01T02:20:56.300Z,45.50
2018-03-01T02:23:25.398Z,45.40
2018-03-01T02:25:54.472Z,45.10
2018-03-01T02:28:24.416Z,45.10
2018-03-01T02:30:53.470Z,45.20
2018-03-01T02:33:22.552Z,45.40
2018-03-01T02:35:51.613Z,45.30
2018-03-01T02:38:20.705Z,45.10
2018-03-01T02:40:49.773Z,45.70
2018-03-01T02:43:18.843Z,45.30
2018-03-01T02:45:47.979Z,45.60
2018-03-01T02:48:17.033Z,45.90
2018-03-01T02:50:46.890Z,45.90
2018-03-01T02:53:15.944Z,45.80
2018-03-01T02:55:45.024Z,45.80
2018-03-01T02:58:14.865Z,45.90
2018-03-01T03:00:43.939Z,45.80
2018-03-01T03:03:13.788Z,45.80
2018-03-01T03:05:42.868Z,45.80
2018-03-01T03:08:11.954Z,45.70
2018-03-01T03:10:41.068Z,45.70
2018-03-01T03:13:10.868Z,46.00
2018-03-01T03:15:39.926Z,46.00
2018-03-01T03:18:09.011Z,46.20
2018-03-01T03:20:38.073Z,46.30
2018-03-01T03:23:07.153Z,46.00
2018-03-01T03:25:36.262Z,45.90
2018-03-01T03:28:05.307Z,46.30
2018-03-01T03:30:34.539Z,46.50
2018-03-01T03:33:03.596Z,46.40
2018-03-01T03:35:32.655Z,46.60
2018-03-01T03:38:01.772Z,46.90
2018-03-01T03:40:30.825Z,47.10
2018-03-01T03:42:59.891Z,46.90
2018-03-01T03:45:29.747Z,47.10
2018-03-01T03:47:58.795Z,47.10
2018-03-01T03:50:27.859Z,47.40
2018-03-01T03:52:56.990Z,47.20
2018-03-01T03:55:26.811Z,47.00
2018-03-01T03:57:55.876Z,47.00
2018-03-01T04:00:25.000Z,47.20
2018-03-01T04:02:54.059Z,47.60
2018-03-01T04:05:23.119Z,48.00
2018-03-01T04:07:52.248Z,48.60
2018-03-01T04:10:21.307Z,48.70
2018-03-01T04:12:51.144Z,48.70
2018-03-01T04:15:20.266Z,48.70
2018-03-01T04:17:50.183Z,49.60
2018-03-01T04:20:19.232Z,49.50
2018-03-01T04:22:48.451Z,50.70
2018-03-01T04:25:17.510Z,51.00
2018-03-01T04:27:46.570Z,50.60
2018-03-01T04:30:16.423Z,50.20
2018-03-01T04:32:45.489Z,50.20
2018-03-01T04:35:14.583Z,50.20
2018-03-01T04:37:43.658Z,50.30
2018-03-01T04:40:12.732Z,50.50
2018-03-01T04:42:41.839Z,50.30
2018-03-01T04:45:11.294Z,50.60
2018-03-01T04:47:40.405Z,51.10
2018-03-01T04:50:09.495Z,51.30
2018-03-01T04:52:38.592Z,51.10
2018-03-01T04:55:07.628Z,51.90
2018-03-01T04:57:37.502Z,51.80
2018-03-01T05:00:06.616Z,51.80
2018-03-01T05:02:35.675Z,51.80
2018-03-01T05:05:04.818Z,52.10
2018-03-01T05:07:33.908Z,52.10
2018-03-01T05:10:02.967Z,52.70
2018-03-01T05:12:32.071Z,52.90
2018-03-01T05:15:01.156Z,53.10
2018-03-01T05:17:30.988Z,52.60
2018-03-01T05:20:01.073Z,52.10
2018-03-01T05:22:30.159Z,52.10
2018-03-01T05:24:59.261Z,52.00
2018-03-01T05:27:28.337Z,52.50
2018-03-01T05:29:57.408Z,53.40
2018-03-01T05:32:26.490Z,53.50
2018-03-01T05:34:55.551Z,53.20
2018-03-01T05:37:24.670Z,52.90
2018-03-01T05:39:53.716Z,53.30
2018-03-01T05:42:22.808Z,53.40
2018-03-01T05:44:51.919Z,53.50
2018-03-01T05:47:20.974Z,53.70
2018-03-01T05:49:50.834Z,53.10
2018-03-01T05:52:19.894Z,53.10
2018-03-01T05:54:49.704Z,54.70
2018-03-01T05:57:19.590Z,55.50
2018-03-01T05:59:49.428Z,55.80
2018-03-01T06:02:19.290Z,55.50
2018-03-01T06:04:48.420Z,55.50
2018-03-01T06:07:17.488Z,55.20
2018-03-01T06:09:46.539Z,54.90
2018-03-01T06:12:15.609Z,54.50
2018-03-01T06:14:44.711Z,55.00
2018-03-01T06:17:14.560Z,55.30
2018-03-01T06:19:43.646Z,55.30
2018-03-01T06:22:12.703Z,55.30
2018-03-01T06:24:41.852Z,55.40
2018-03-01T06:27:10.929Z,54.80
2018-03-01T06:29:40.232Z,54.30
2018-03-01T06:32:09.307Z,54.30
2018-03-01T06:34:39.131Z,52.90
2018-03-01T06:37:08.299Z,52.80
2018-03-01T06:39:37.346Z,53.10
2018-03-01T06:42:06.492Z,53.30
2018-03-01T06:44:35.621Z,54.00
2018-03-01T06:47:04.689Z,53.80
2018-03-01T06:49:34.526Z,54.70
2018-03-01T06:52:03.832Z,54.70
2018-03-01T06:54:32.931Z,56.30
2018-03-01T06:57:01.994Z,56.10
2018-03-01T06:59:31.897Z,53.90
2018-03-01T07:02:00.978Z,53.90
2018-03-01T07:04:30.046Z,54.10
2018-03-01T07:06:59.195Z,54.00
2018-03-01T07:09:29.045Z,55.60
2018-03-01T07:11:58.124Z,55.60
2018-03-01T07:14:27.316Z,55.90
2018-03-01T07:16:56.431Z,56.40
2018-03-01T07:19:26.223Z,55.00
2018-03-01T07:21:55.307Z,55.00
2018-03-01T07:24:25.120Z,55.40
2018-03-01T07:26:54.992Z,54.90
2018-03-01T07:29:24.051Z,54.90
2018-03-01T07:31:53.180Z,54.80
2018-03-01T07:34:22.449Z,54.40
2018-03-01T07:36:51.552Z,53.00
2018-03-01T07:39:20.620Z,52.10
2018-03-01T07:41:49.745Z,51.80
2018-03-01T07:44:18.799Z,51.70
2018-03-01T07:46:48.641Z,52.20
2018-03-01T07:49:17.762Z,52.20
2018-03-01T07:51:46.815Z,52.00
2018-03-01T07:54:15.872Z,51.70
2018-03-01T07:56:45.425Z,51.60
2018-03-01T07:59:14.477Z,51.90
2018-03-01T08:01:43.535Z,51.80
2018-03-01T08:04:12.669Z,50.80
2018-03-01T08:06:41.723Z,50.50
2018-03-01T08:09:10.776Z,50.80
2018-03-01T08:11:39.895Z,50.80
2018-03-01T08:14:08.943Z,50.90
2018-03-01T08:16:38.003Z,50.80
2018-03-01T08:19:08.024Z,50.80
2018-03-01T08:21:37.587Z,50.30
2018-03-01T08:24:07.447Z,50.40
2018-03-01T08:26:36.567Z,50.40
2018-03-01T08:29:05.631Z,51.00
2018-03-01T08:31:34.697Z,50.60
2018-03-01T08:34:04.965Z,50.00
2018-03-01T08:36:34.074Z,49.90
2018-03-01T08:39:03.131Z,50.60
2018-03-01T08:41:32.278Z,50.10
2018-03-01T08:44:01.324Z,50.20
2018-03-01T08:46:30.388Z,50.00
2018-03-01T08:48:59.536Z,49.90
2018-03-01T08:51:28.577Z,49.40
2018-03-01T08:53:57.673Z,49.10
2018-03-01T08:56:26.904Z,49.00
2018-03-01T08:58:55.959Z,49.50
2018-03-01T09:01:25.832Z,48.60
2018-03-01T09:03:54.885Z,48.60
2018-03-01T09:06:23.928Z,48.30
2018-03-01T09:08:52.985Z,48.20
2018-03-01T09:11:22.073Z,46.20
2018-03-01T09:13:51.248Z,45.90
2018-03-01T09:16:20.257Z,45.70
2018-03-01T09:18:49.310Z,45.90
2018-03-01T09:21:18.393Z,45.80
2018-03-01T09:23:47.465Z,45.90
2018-03-01T09:26:16.514Z,46.10
2018-03-01T09:28:45.603Z,45.90
2018-03-01T09:31:15.427Z,45.50
2018-03-01T09:33:44.554Z,45.40
2018-03-01T09:36:13.647Z,45.00
2018-03-01T09:38:42.703Z,45.00
2018-03-01T09:41:12.536Z,45.30
2018-03-01T09:43:41.623Z,45.30
2018-03-01T09:46:11.851Z,45.20
2018-03-01T09:48:40.912Z,45.20
2018-03-01T09:51:15.562Z,45.10
2018-03-01T09:53:44.651Z,46.10
2018-03-01T09:56:13.753Z,46.40
2018-03-01T09:58:43.019Z,46.30
2018-03-01T10:01:12.085Z,46.70
2018-03-01T10:03:41.136Z,46.40
2018-03-01T10:06:10.219Z,46.70
2018-03-01T10:08:40.038Z,46.50
2018-03-01T10:11:09.260Z,46.40
2018-03-01T10:13:38.331Z,46.70
2018-03-01T10:16:08.155Z,46.60
2018-03-01T10:18:37.243Z,46.50
2018-03-01T10:21:06.295Z,45.40
2018-03-01T10:23:35.399Z,45.00
2018-03-01T10:26:04.485Z,44.40
2018-03-01T10:28:39.461Z,45.00
2018-03-01T10:31:08.512Z,44.80
2018-03-01T10:33:43.126Z,45.30
2018-03-01T10:36:12.181Z,45.60
2018-03-01T10:38:41.270Z,46.10
2018-03-01T10:41:11.123Z,47.50
2018-03-01T10:43:40.203Z,47.50
2018-03-01T10:46:09.286Z,48.10
2018-03-01T10:48:38.355Z,47.60
2018-03-01T10:51:08.258Z,47.00
2018-03-01T10:53:37.300Z,47.00
2018-03-01T10:56:06.380Z,47.20
2018-03-01T10:58:35.433Z,46.70
2018-03-01T11:01:19.126Z,45.90
2018-03-01T11:03:48.177Z,44.80
2018-03-01T11:06:18.001Z,44.20
2018-03-01T11:08:47.101Z,44.20
2018-03-01T11:11:16.157Z,43.80
2018-03-01T11:13:45.434Z,44.00
2018-03-01T11:16:14.552Z,43.90
2018-03-01T11:18:43.609Z,43.40
2018-03-01T11:21:12.680Z,41.90
2018-03-01T11:23:41.747Z,40.60
2018-03-01T11:26:11.582Z,39.80
2018-03-01T11:28:40.678Z,39.80
2018-03-01T11:31:09.749Z,39.00
2018-03-01T11:33:38.842Z,39.20
2018-03-01T11:36:07.902Z,38.70
2018-03-01T11:38:36.975Z,39.10
2018-03-01T11:41:06.061Z,39.40
2018-03-01T11:43:35.138Z,39.40
2018-03-01T11:46:04.992Z,38.60
2018-03-01T11:48:34.070Z,38.60
2018-03-01T11:51:03.147Z,38.30
2018-03-01T11:53:32.215Z,38.00
2018-03-01T11:56:01.388Z,37.50
2018-03-01T11:58:30.450Z,37.70
2018-03-01T12:00:59.505Z,38.90
2018-03-01T12:03:28.581Z,37.80
2018-03-01T12:05:57.687Z,37.40
2018-03-01T12:08:26.794Z,37.10
2018-03-01T12:10:56.615Z,36.20
2018-03-01T12:13:26.479Z,35.90
2018-03-01T12:15:55.526Z,36.00
2018-03-01T12:18:25.518Z,36.30
2018-03-01T12:20:54.558Z,36.40
2018-03-01T12:23:23.615Z,36.10
2018-03-01T12:25:52.728Z,35.50
2018-03-01T12:28:22.531Z,34.60
2018-03-01T12:30:52.403Z,35.00
2018-03-01T12:33:21.472Z,35.00
2018-03-01T12:35:50.543Z,34.90
2018-03-01T12:38:19.630Z,34.20
2018-03-01T12:40:49.491Z,31.10
2018-03-01T12:43:18.527Z,31.10
2018-03-01T12:45:48.364Z,31.40
2018-03-01T12:48:17.439Z,31.40
2018-03-01T12:50:47.265Z,31.30
2018-03-01T12:53:16.352Z,31.30
2018-03-01T12:55:46.196Z,32.80
2018-03-01T12:58:15.276Z,32.80
2018-03-01T13:00:44.333Z,32.90
2018-03-01T13:03:13.417Z,33.20
2018-03-01T13:05:42.511Z,33.50
2018-03-01T13:08:11.599Z,33.30
2018-03-01T13:10:43.046Z,33.90
2018-03-01T13:13:12.106Z,34.50
2018-03-01T13:15:41.207Z,34.70
2018-03-01T13:18:10.265Z,34.80
2018-03-01T13:20:40.093Z,35.70
2018-03-01T13:23:09.976Z,36.30
2018-03-01T13:25:39.046Z,36.30
2018-03-01T13:28:08.125Z,36.10
2018-03-01T13:30:38.156Z,36.40
2018-03-01T13:33:19.821Z,36.30
2018-03-01T13:35:48.958Z,36.30
2018-03-01T13:38:18.009Z,36.20
2018-03-01T13:40:47.094Z,36.30
2018-03-01T13:43:16.471Z,36.10
2018-03-01T13:45:46.503Z,36.30
2018-03-01T13:48:16.324Z,35.90
2018-03-01T13:50:45.419Z,35.90
2018-03-01T13:53:14.486Z,36.00
2018-03-01T13:55:43.539Z,35.90
2018-03-01T13:58:12.643Z,36.20
2018-03-01T14:00:41.747Z,36.50
2018-03-01T14:03:10.815Z,36.40
2018-03-01T14:05:40.718Z,36.50
2018-03-01T14:08:09.779Z,39.60
2018-03-01T14:10:39.646Z,37.30
2018-03-01T14:13:14.303Z,37.30
2018-03-01T14:15:43.391Z,37.90
2018-03-01T14:18:12.444Z,37.90
2018-03-01T14:34:04.524Z,39.00
2018-03-01T14:36:33.589Z,38.90
2018-03-01T14:39:02.675Z,38.70
2018-03-01T14:41:31.781Z,38.40
2018-03-01T14:44:00.867Z,38.60
2018-03-01T14:46:29.949Z,38.70
2018-03-01T14:48:59.020Z,39.10
2018-03-01T14:51:28.077Z,38.60
2018-03-01T14:53:57.149Z,38.40
2018-03-01T14:56:26.216Z,38.70
2018-03-01T14:58:55.297Z,38.80
2018-03-01T15:01:24.395Z,38.70
2018-03-01T15:03:53.459Z,38.80
2018-03-01T15:06:22.539Z,38.90
2018-03-01T15:08:51.672Z,39.60
2018-03-01T15:11:21.489Z,39.40
2018-03-01T15:13:50.657Z,39.40
2018-03-01T15:16:20.508Z,39.40
2018-03-01T15:18:49.575Z,39.40
2018-03-01T15:21:18.655Z,39.60
2018-03-01T15:23:48.186Z,39.90
2018-03-01T15:26:18.005Z,40.10
2018-03-01T15:28:47.069Z,40.10
2018-03-01T15:31:16.334Z,41.40
2018-03-01T15:33:45.460Z,40.70
2018-03-01T15:36:14.476Z,40.70
2018-03-01T15:38:44.686Z,40.60
2018-03-01T15:41:13.740Z,40.50
2018-03-01T15:43:42.792Z,40.70
2018-03-01T15:46:12.135Z,40.70
2018-03-01T15:48:41.193Z,40.50
2018-03-01T15:51:10.270Z,40.60
2018-03-01T15:53:40.219Z,41.00
2018-03-01T15:56:09.315Z,41.00
2018-03-01T15:58:38.375Z,41.00
2018-03-01T16:01:08.259Z,40.80
2018-03-01T16:03:37.301Z,40.80
2018-03-01T16:09:26.389Z,41.40
2018-03-01T16:11:55.480Z,41.10
2018-03-01T16:14:24.547Z,41.20
2018-03-01T16:16:54.375Z,41.60
2018-03-01T16:19:23.460Z,41.50
2018-03-01T16:21:53.312Z,42.00
2018-03-01T16:24:22.422Z,42.00
2018-03-01T16:26:51.466Z,42.20
2018-03-01T16:29:21.311Z,42.70
2018-03-01T16:31:51.002Z,42.80
2018-03-01T16:34:20.083Z,42.80
2018-03-01T16:36:49.903Z,43.00
2018-03-01T16:39:19.004Z,43.00
2018-03-01T16:41:48.063Z,43.00
2018-03-01T16:44:17.168Z,43.20
2018-03-01T16:46:46.994Z,43.40
2018-03-01T16:49:16.936Z,43.60
2018-03-01T16:51:46.005Z,43.60
2018-03-01T16:54:15.861Z,43.90
2018-03-01T16:56:45.708Z,43.70
2018-03-01T16:59:14.770Z,43.60
2018-03-01T17:01:43.881Z,43.50
2018-03-01T17:04:12.980Z,43.60
2018-03-01T17:06:42.082Z,43.80
2018-03-01T17:09:11.097Z,43.70
2018-03-01T17:11:40.974Z,43.80
2018-03-01T17:14:10.047Z,43.80
2018-03-01T17:16:39.099Z,43.80
2018-03-01T17:19:08.964Z,44.80
2018-03-01T17:21:38.041Z,45.00
2018-03-01T17:24:07.107Z,44.40
2018-03-01T17:26:36.170Z,44.10
2018-03-01T17:29:05.263Z,44.30
2018-03-01T17:31:34.347Z,44.40
2018-03-01T17:34:03.395Z,44.60
2018-03-01T17:36:32.501Z,44.60
2018-03-01T17:39:01.565Z,44.50
2018-03-01T17:41:31.529Z,44.50
2018-03-01T17:44:00.580Z,44.80
2018-03-01T17:46:30.417Z,45.20
2018-03-01T17:48:59.507Z,45.30
2018-03-01T17:51:28.573Z,45.10
2018-03-01T17:53:58.453Z,45.00
2018-03-01T17:56:27.563Z,45.00
2018-03-01T17:58:56.691Z,45.00
2018-03-01T18:01:26.550Z,45.10
2018-03-01T18:03:55.601Z,45.20
2018-03-01T18:06:25.476Z,45.60
2018-03-01T18:08:54.578Z,45.60
2018-03-01T18:11:23.683Z,46.10
2018-03-01T18:13:52.788Z,46.70
2018-03-01T18:16:21.899Z,47.20
2018-03-01T18:18:50.986Z,47.30
2018-03-01T18:21:20.807Z,48.40
2018-03-01T18:23:49.897Z,48.40
2018-03-01T18:26:18.994Z,48.40
2018-03-01T18:28:48.074Z,48.50
2018-03-01T18:31:17.171Z,48.60
2018-03-01T18:33:47.026Z,49.00
2018-03-01T18:36:16.101Z,49.00
2018-03-01T18:38:45.172Z,48.90
2018-03-01T18:41:15.000Z,49.10
2018-03-01T18:43:44.908Z,49.00
2018-03-01T18:46:15.735Z,49.40
2018-03-01T18:48:45.601Z,49.80
2018-03-01T18:51:14.732Z,49.30
2018-03-01T18:53:43.825Z,49.10
2018-03-01T18:56:12.917Z,48.80
2018-03-01T18:58:42.064Z,48.80
2018-03-01T19:01:11.128Z,49.10
2018-03-01T19:03:40.981Z,49.70
2018-03-01T19:06:10.022Z,49.70
2018-03-01T19:08:39.909Z,49.80
2018-03-01T19:11:08.988Z,49.80
2018-03-01T19:13:38.060Z,49.80
2018-03-01T19:16:07.145Z,49.80
2018-03-01T19:18:36.237Z,49.70
2018-03-01T19:21:05.342Z,49.80
2018-03-01T19:23:34.427Z,49.90
2018-03-01T19:26:03.531Z,50.30
2018-03-01T19:28:32.608Z,50.40
2018-03-01T19:31:02.568Z,50.50
2018-03-01T19:33:31.600Z,50.40
2018-03-01T19:36:01.504Z,50.60
2018-03-01T19:38:30.622Z,50.40
2018-03-01T19:40:59.709Z,50.50
2018-03-01T19:43:28.790Z,49.60
2018-03-01T19:45:57.876Z,49.80
2018-03-01T19:48:27.800Z,50.10
2018-03-01T19:50:56.924Z,50.30
2018-03-01T19:53:26.742Z,50.60
2018-03-01T19:55:55.846Z,50.60
2018-03-01T19:58:24.908Z,50.60
2018-03-01T20:00:54.031Z,50.40
2018-03-01T20:03:23.129Z,50.50
2018-03-01T20:05:52.197Z,50.30
2018-03-01T20:08:22.876Z,50.10
2018-03-01T20:10:52.034Z,50.40
2018-03-01T20:13:21.226Z,50.70
2018-03-01T20:15:50.419Z,50.70
2018-03-01T20:18:20.250Z,50.90
2018-03-01T20:20:50.106Z,50.50
2018-03-01T20:23:19.167Z,50.50
2018-03-01T20:25:48.239Z,50.30
2018-03-01T20:28:18.116Z,50.20
2018-03-01T20:30:47.176Z,50.10
2018-03-01T20:33:16.229Z,50.60
2018-03-01T20:35:45.664Z,50.90
2018-03-01T20:38:14.683Z,50.70
2018-03-01T20:40:43.850Z,50.70
2018-03-01T20:43:13.735Z,50.10
2018-03-01T20:45:42.806Z,50.20
2018-03-01T20:48:11.870Z,50.20
2018-03-01T20:50:41.023Z,50.20
2018-03-01T20:53:10.100Z,50.10
2018-03-01T20:55:39.158Z,50.30
2018-03-01T20:58:08.560Z,50.20
2018-03-01T21:00:37.607Z,50.20
2018-03-01T21:03:06.728Z,50.10
2018-03-01T21:05:35.780Z,49.70
2018-03-01T21:08:04.864Z,50.40
2018-03-01T21:10:33.931Z,50.40
2018-03-01T21:13:03.027Z,50.50
2018-03-01T21:15:32.201Z,50.70
2018-03-01T21:18:02.049Z,50.20
2018-03-01T21:20:31.126Z,50.20
2018-03-01T21:23:00.228Z,50.30
2018-03-01T21:25:29.292Z,50.50
2018-03-01T21:27:59.163Z,50.50
2018-03-01T21:30:28.242Z,50.50
2018-03-01T21:32:57.314Z,50.30
2018-03-01T21:35:27.165Z,50.70
2018-03-01T21:37:56.219Z,50.60
2018-03-01T21:40:25.316Z,50.70
2018-03-01T21:42:54.376Z,50.80
2018-03-01T21:45:23.505Z,50.90
2018-03-01T21:47:55.104Z,50.90
2018-03-01T21:50:24.195Z,50.90
2018-03-01T21:52:53.264Z,50.90
2018-03-01T21:55:22.366Z,50.70
2018-03-01T21:57:51.426Z,50.80
2018-03-01T22:00:20.519Z,50.80
2018-03-01T22:02:50.362Z,50.70
2018-03-01T22:05:19.446Z,50.70
2018-03-01T22:07:48.535Z,51.10
2018-03-01T22:10:17.583Z,51.30
2018-03-01T22:12:46.718Z,51.40
2018-03-01T22:15:18.455Z,51.60
2018-03-01T22:17:48.576Z,51.20
2018-03-01T22:20:18.415Z,51.30
2018-03-01T22:22:47.465Z,51.20
2018-03-01T22:25:16.599Z,51.60
2018-03-01T22:27:45.917Z,51.80
2018-03-01T22:30:14.971Z,51.80
2018-03-01T22:32:48.076Z,51.30
2018-03-01T22:35:17.143Z,51.50
2018-03-01T22:37:46.447Z,51.60
2018-03-01T22:40:15.535Z,51.80
2018-03-01T22:42:44.598Z,52.10
2018-03-01T22:45:13.724Z,52.10
2018-03-01T22:47:42.784Z,52.30
2018-03-01T22:50:11.939Z,52.30
2018-03-01T22:52:42.004Z,52.60
2018-03-01T22:55:11.132Z,52.60
2018-03-01T22:57:41.664Z,52.20
2018-03-01T23:00:10.783Z,52.20
2018-03-01T23:02:40.661Z,52.20
2018-03-01T23:05:10.645Z,52.20
2018-03-01T23:07:39.715Z,52.50
2018-03-01T23:10:08.785Z,52.80
2018-03-01T23:12:37.892Z,52.50
2018-03-01T23:15:06.943Z,52.60
2018-03-01T23:17:36.157Z,52.80
2018-03-01T23:20:05.206Z,52.90
2018-03-01T23:22:34.267Z,52.80
2018-03-01T23:25:04.124Z,52.60
2018-03-01T23:27:33.214Z,52.70
2018-03-01T23:30:02.296Z,52.40
2018-03-01T23:32:31.356Z,52.90
2018-03-01T23:35:00.431Z,52.70
2018-03-01T23:37:29.512Z,52.70
2018-03-01T23:39:58.579Z,52.70
2018-03-01T23:42:27.660Z,52.80
2018-03-01T23:44:56.723Z,52.80
2018-03-01T23:47:25.820Z,53.40
2018-03-01T23:49:54.872Z,54.10
2018-03-01T23:52:23.937Z,53.70
2018-03-01T23:54:53.030Z,53.30
2018-03-01T23:57:22.847Z,52.80
2018-03-01T23:59:51.898Z,52.80
